Time;durP1;ratioP1;P1;durP2;ratioP2;P2;SDS_P1;SDS_P2;PMS_P1;PMS_P2;Temp;Humidity;BMP_temperature;BMP_pressure;BME280_temperature;BME280_humidity;BME280_pressure;Samples;Min_cycle;Max_cycle;Signal;HPM_P1;HPM_P2
2021/12/24 00:01:20;;;;;;;9.13;5.53;;;22.60;36.00;;;;;;6177189;27;80364;-68
2021/12/24 00:04:21;;;;;;;11.40;6.57;;;22.60;36.00;;;;;;6166288;27;80530;-68
2021/12/24 00:07:22;;;;;;;7.45;5.78;;;22.60;36.10;;;;;;6177973;27;80841;-67
2021/12/24 00:10:22;;;;;;;10.55;6.07;;;22.60;36.10;;;;;;6158658;28;80118;-67
2021/12/24 00:13:23;;;;;;;9.15;6.03;;;22.50;35.90;;;;;;6177356;27;81074;-67
2021/12/24 00:16:30;;;;;;;9.95;5.90;;;22.50;35.70;;;;;;6160453;28;80251;-67
2021/12/24 00:20:13;;;;;;;10.95;6.18;;;22.50;36.30;;;;;;6173647;27;80942;-67
2021/12/24 00:36:02;;;;;;;6.65;5.03;;;22.50;35.80;;;;;;6167856;28;83754;-67
2021/12/24 00:39:02;;;;;;;7.40;4.95;;;22.50;35.90;;;;;;6204503;27;81184;-68
2021/12/24 00:42:03;;;;;;;7.75;5.22;;;22.50;36.00;;;;;;6143643;28;83141;-68
2021/12/24 00:45:04;;;;;;;6.85;4.60;;;22.50;36.50;;;;;;6164517;28;81745;-70
2021/12/24 00:48:04;;;;;;;7.30;4.80;;;22.50;36.90;;;;;;6161813;28;81193;-69
2021/12/24 00:57:25;;;;;;;8.57;4.90;;;22.50;37.20;;;;;;6160861;28;80459;-69
2021/12/24 01:00:25;;;;;;;6.32;4.65;;;22.50;36.90;;;;;;6160303;28;81152;-68
2021/12/24 01:03:26;;;;;;;5.38;4.35;;;22.40;36.80;;;;;;6169752;28;81485;-68
2021/12/24 01:06:26;;;;;;;7.47;4.78;;;22.40;36.70;;;;;;6173753;27;81748;-69
2021/12/24 01:09:28;;;;;;;9.55;4.65;;;22.50;36.80;;;;;;6162185;28;80732;-69
2021/12/24 01:12:28;;;;;;;6.55;4.57;;;22.40;36.80;;;;;;6152340;28;83451;-69
2021/12/24 01:15:30;;;;;;;6.05;4.05;;;22.40;37.50;;;;;;6145093;28;83022;-68
2021/12/24 01:25:01;;;;;;;5.63;3.60;;;22.40;36.70;;;;;;6199235;27;81234;-69
2021/12/24 01:38:10;;;;;;;6.90;4.07;;;22.40;36.80;;;;;;6144782;28;82816;-69
2021/12/24 01:41:19;;;;;;;5.03;3.53;;;22.40;36.60;;;;;;6169227;28;80602;-68
2021/12/24 01:44:26;;;;;;;6.55;4.22;;;22.40;36.40;;;;;;6178269;27;81939;-68
2021/12/24 01:47:27;;;;;;;4.00;3.60;;;22.40;36.40;;;;;;6167638;28;81917;-67
2021/12/24 01:50:28;;;;;;;6.53;3.95;;;22.40;36.40;;;;;;6168097;28;83098;-68
2021/12/24 01:53:33;;;;;;;6.00;3.78;;;22.40;36.60;;;;;;6161256;28;87573;-69
2021/12/24 01:56:34;;;;;;;5.27;3.20;;;22.40;36.60;;;;;;6162397;28;80903;-69
2021/12/24 01:59:34;;;;;;;4.85;3.65;;;22.40;37.10;;;;;;6194904;28;80647;-68
2021/12/24 02:02:35;;;;;;;4.10;3.42;;;22.40;37.20;;;;;;6166206;28;82303;-68
2021/12/24 02:05:35;;;;;;;4.72;3.95;;;22.40;37.40;;;;;;6174914;27;80391;-68
2021/12/24 02:08:36;;;;;;;5.18;3.45;;;22.40;37.00;;;;;;6167229;28;83500;-68
2021/12/24 02:11:38;;;;;;;4.70;3.53;;;22.40;37.30;;;;;;6167106;28;83091;-68
2021/12/24 02:14:40;;;;;;;6.22;3.55;;;22.30;37.20;;;;;;6165253;28;81358;-69
2021/12/24 02:31:06;;;;;;;5.63;3.60;;;22.30;37.40;;;;;;6162005;28;83299;-68
2021/12/24 02:34:07;;;;;;;3.95;3.20;;;22.30;37.20;;;;;;6161584;28;83214;-68
2021/12/24 02:37:09;;;;;;;4.97;3.38;;;22.30;37.50;;;;;;6178027;27;80239;-68
2021/12/24 02:40:09;;;;;;;6.60;4.03;;;22.30;37.20;;;;;;6179599;27;80321;-68
2021/12/24 02:43:14;;;;;;;6.65;3.45;;;22.30;37.30;;;;;;6172351;28;81695;-68
2021/12/24 02:46:26;;;;;;;4.78;3.22;;;22.30;37.40;;;;;;6169406;28;80416;-69
2021/12/24 02:56:23;;;;;;;4.05;3.10;;;22.30;37.10;;;;;;6177637;28;80317;-68
2021/12/24 02:59:28;;;;;;;5.15;3.28;;;22.30;37.30;;;;;;6195409;28;83103;-69
2021/12/24 03:02:30;;;;;;;6.50;3.38;;;22.30;36.90;;;;;;6172766;28;85112;-68
2021/12/24 03:05:31;;;;;;;5.00;3.42;;;22.30;37.00;;;;;;6157921;28;83640;-69
2021/12/24 03:08:31;;;;;;;4.30;3.38;;;22.30;37.30;;;;;;6176819;27;83201;-68
2021/12/24 03:11:32;;;;;;;3.40;2.90;;;22.30;37.20;;;;;;6172752;28;80813;-68
2021/12/24 03:14:32;;;;;;;3.88;3.17;;;22.30;37.00;;;;;;6173870;28;80352;-68
2021/12/24 03:17:34;;;;;;;5.30;3.28;;;22.30;36.70;;;;;;6175234;28;81473;-68
2021/12/24 03:20:35;;;;;;;4.35;3.60;;;22.30;36.40;;;;;;6170820;27;83103;-68
2021/12/24 03:23:40;;;;;;;5.05;3.58;;;22.40;36.40;;;;;;6178835;28;80304;-68
2021/12/24 03:26:41;;;;;;;4.78;3.33;;;22.40;36.30;;;;;;6160979;28;80358;-68
2021/12/24 03:29:42;;;;;;;3.55;3.08;;;22.40;36.60;;;;;;6175870;28;82911;-68
2021/12/24 03:32:43;;;;;;;4.35;2.90;;;22.50;36.50;;;;;;6153547;28;80644;-68
2021/12/24 03:35:43;;;;;;;3.03;2.72;;;22.50;36.50;;;;;;6172477;28;87851;-68
2021/12/24 03:38:44;;;;;;;4.35;3.45;;;22.60;36.60;;;;;;6157642;28;82843;-69
2021/12/24 03:41:44;;;;;;;4.53;3.10;;;22.60;36.50;;;;;;6165621;28;80485;-66
2021/12/24 03:44:52;;;;;;;5.07;3.42;;;22.70;36.60;;;;;;6169915;28;83638;-65
2021/12/24 03:47:58;;;;;;;3.58;2.75;;;22.70;36.70;;;;;;6176835;28;80563;-66
2021/12/24 03:51:22;;;;;;;3.10;2.80;;;22.70;36.80;;;;;;6194992;28;82780;-66
2021/12/24 03:57:39;;;;;;;5.43;3.28;;;22.80;37.70;;;;;;6171811;28;80240;-64
2021/12/24 04:00:58;;;;;;;4.53;3.15;;;22.80;37.10;;;;;;6166976;28;81159;-64
2021/12/24 04:03:58;;;;;;;5.00;3.13;;;22.90;37.40;;;;;;6168675;27;80745;-64
2021/12/24 04:07:17;;;;;;;4.45;3.22;;;22.90;37.50;;;;;;6161898;28;80112;-65
2021/12/24 04:10:45;;;;;;;4.65;3.40;;;22.90;37.70;;;;;;6165670;28;80455;-66
2021/12/24 04:14:00;;;;;;;4.45;3.50;;;22.90;37.40;;;;;;6174462;28;83362;-66
2021/12/24 04:17:01;;;;;;;4.28;3.15;;;22.90;37.50;;;;;;6204025;28;81977;-65
2021/12/24 04:26:41;;;;;;;3.65;3.22;;;23.00;37.10;;;;;;6166953;28;88005;-66
2021/12/24 04:29:41;;;;;;;3.17;2.78;;;23.00;37.40;;;;;;6171375;28;82875;-72
2021/12/24 04:39:38;;;;;;;3.78;3.17;;;23.00;36.90;;;;;;6157564;28;83130;-66
2021/12/24 05:06:06;;;;;;;5.32;3.50;;;23.10;37.20;;;;;;6163937;28;83472;-67
2021/12/24 05:09:12;;;;;;;3.80;2.85;;;23.10;36.80;;;;;;6202779;28;83229;-66
2021/12/24 05:12:13;;;;;;;3.67;3.00;;;23.20;36.70;;;;;;6209096;28;83061;-67
2021/12/24 05:15:13;;;;;;;3.42;3.00;;;23.20;36.70;;;;;;6190002;28;82750;-63
2021/12/24 05:19:00;;;;;;;3.38;2.95;;;23.20;36.80;;;;;;6157535;28;82785;-66
2021/12/24 05:22:13;;;;;;;4.25;2.92;;;23.20;36.60;;;;;;6154277;28;81635;-67
2021/12/24 05:25:15;;;;;;;3.67;2.83;;;23.20;36.70;;;;;;6154043;28;83460;-68
2021/12/24 05:28:16;;;;;;;3.35;2.75;;;23.20;37.20;;;;;;6167586;28;82818;-67
2021/12/24 05:31:16;;;;;;;7.78;2.80;;;23.30;38.00;;;;;;6146316;28;81216;-68
2021/12/24 05:34:18;;;;;;;6.32;3.13;;;23.30;37.90;;;;;;6169452;28;82769;-68
2021/12/24 05:37:18;;;;;;;4.35;3.08;;;23.30;37.60;;;;;;6179833;28;80420;-68
2021/12/24 05:40:19;;;;;;;3.63;2.88;;;23.30;37.40;;;;;;6156649;28;81707;-68
2021/12/24 05:43:19;;;;;;;4.43;3.15;;;23.30;37.40;;;;;;6158532;28;80586;-68
2021/12/24 05:46:20;;;;;;;3.60;2.97;;;23.30;37.40;;;;;;6157321;28;83488;-70
2021/12/24 05:49:42;;;;;;;3.03;2.25;;;23.30;37.50;;;;;;6169493;28;80560;-68
2021/12/24 05:53:01;;;;;;;68.28;32.67;;;23.30;39.50;;;;;;6158406;28;84585;-68
2021/12/24 05:56:23;;;;;;;187.18;84.38;;;23.10;41.50;;;;;;6170904;28;83302;-69
2021/12/24 05:59:35;;;;;;;249.55;112.97;;;23.00;42.70;;;;;;6140677;28;85634;-71
2021/12/24 06:02:36;;;;;;;297.77;139.45;;;22.90;43.40;;;;;;6151673;28;85402;-68
2021/12/24 06:05:37;;;;;;;339.00;155.30;;;22.90;44.40;;;;;;6155338;28;86812;-68
2021/12/24 06:08:37;;;;;;;412.65;189.05;;;22.80;44.90;;;;;;6155049;28;85160;-68
2021/12/24 06:11:38;;;;;;;353.73;156.45;;;22.80;45.40;;;;;;6156714;28;85749;-69
2021/12/24 06:14:40;;;;;;;252.02;115.75;;;22.80;45.70;;;;;;6154954;28;85823;-69
2021/12/24 06:17:41;;;;;;;239.90;114.47;;;22.80;45.90;;;;;;6155163;28;85608;-69
2021/12/24 06:20:41;;;;;;;346.00;161.25;;;22.70;46.40;;;;;;6156714;28;85464;-68
2021/12/24 06:23:43;;;;;;;294.00;139.27;;;22.60;47.00;;;;;;6154999;28;86814;-68
2021/12/24 06:26:44;;;;;;;230.18;109.43;;;22.60;46.90;;;;;;6154195;28;86357;-70
2021/12/24 06:29:45;;;;;;;201.82;98.53;;;22.60;47.50;;;;;;6155370;28;85312;-66
2021/12/24 06:32:45;;;;;;;153.25;73.78;;;22.70;47.70;;;;;;6158385;28;85624;-68
2021/12/24 06:35:46;;;;;;;131.90;58.10;;;22.80;47.90;;;;;;6157585;28;84407;-69
2021/12/24 06:38:46;;;;;;;102.88;47.78;;;22.80;47.60;;;;;;6159405;28;83178;-67
2021/12/24 06:41:47;;;;;;;83.85;40.72;;;22.80;47.80;;;;;;6158527;28;83610;-68
2021/12/24 06:44:47;;;;;;;66.88;32.50;;;22.70;48.30;;;;;;6156933;28;84385;-68
2021/12/24 06:47:48;;;;;;;56.90;26.85;;;22.70;48.80;;;;;;6158029;28;83437;-69
2021/12/24 06:50:50;;;;;;;51.70;25.20;;;22.70;49.10;;;;;;6156074;28;83858;-69
2021/12/24 06:53:50;;;;;;;54.20;26.63;;;22.70;48.50;;;;;;6158787;28;83319;-68
2021/12/24 06:56:53;;;;;;;49.22;23.15;;;22.70;48.20;;;;;;6155899;28;84456;-67
2021/12/24 06:59:54;;;;;;;53.08;25.25;;;22.80;47.50;;;;;;6154148;28;85937;-69
2021/12/24 07:02:56;;;;;;;46.38;22.38;;;22.80;47.50;;;;;;6152362;28;85646;-69
2021/12/24 07:05:57;;;;;;;44.63;22.13;;;22.80;47.40;;;;;;6150122;28;83421;-68
2021/12/24 07:08:57;;;;;;;34.97;18.23;;;22.80;46.70;;;;;;6154015;28;83251;-68
2021/12/24 07:11:58;;;;;;;31.48;17.80;;;22.80;46.30;;;;;;6155871;28;83219;-71
2021/12/24 07:14:58;;;;;;;37.75;17.42;;;22.80;46.80;;;;;;6157907;28;83371;-70
2021/12/24 07:17:59;;;;;;;34.30;15.98;;;22.90;46.30;;;;;;6157884;28;83029;-69
2021/12/24 07:20:59;;;;;;;40.53;17.10;;;22.90;46.50;;;;;;6156451;28;83599;-71
2021/12/24 07:24:00;;;;;;;31.63;16.88;;;22.80;46.60;;;;;;6157583;28;83343;-69
2021/12/24 07:27:03;;;;;;;28.70;14.60;;;22.80;46.50;;;;;;6158359;28;83674;-68
2021/12/24 07:30:03;;;;;;;30.00;13.48;;;22.90;46.50;;;;;;6145128;28;83010;-68
2021/12/24 07:33:04;;;;;;;27.60;14.68;;;22.80;46.40;;;;;;6153529;28;89934;-68
2021/12/24 07:36:04;;;;;;;25.02;11.23;;;22.80;46.10;;;;;;6158224;28;83584;-68
2021/12/24 07:39:05;;;;;;;21.08;10.95;;;22.80;46.10;;;;;;6154322;28;85094;-68
2021/12/24 07:42:06;;;;;;;22.52;11.35;;;22.80;46.10;;;;;;6155851;28;82998;-69
2021/12/24 07:45:09;;;;;;;21.92;11.25;;;22.80;46.00;;;;;;6155711;28;83983;-67
2021/12/24 07:48:13;;;;;;;18.20;9.13;;;22.90;45.70;;;;;;6156197;28;83189;-69
2021/12/24 07:54:33;;;;;;;14.35;7.85;;;22.90;46.00;;;;;;6146383;28;80383;-70
2021/12/24 07:57:33;;;;;;;18.63;9.00;;;22.90;46.30;;;;;;6159531;28;81013;-69
2021/12/24 08:00:34;;;;;;;14.77;8.40;;;22.90;45.70;;;;;;6159564;28;80325;-67
2021/12/24 08:03:34;;;;;;;14.05;7.30;;;22.80;46.10;;;;;;6159503;28;81558;-69
2021/12/24 08:06:35;;;;;;;13.82;6.68;;;22.80;45.90;;;;;;6163730;28;80361;-69
2021/12/24 08:09:37;;;;;;;14.75;7.43;;;22.90;45.90;;;;;;6159842;28;81829;-70
2021/12/24 08:12:37;;;;;;;12.88;7.05;;;22.90;46.20;;;;;;6159381;28;80739;-70
2021/12/24 08:15:38;;;;;;;12.23;6.20;;;22.90;45.80;;;;;;6157972;28;81217;-70
2021/12/24 08:18:38;;;;;;;12.45;5.85;;;22.80;46.40;;;;;;6158444;28;80419;-69
2021/12/24 08:21:39;;;;;;;9.45;5.50;;;22.90;46.80;;;;;;6156176;28;81256;-72
2021/12/24 08:24:39;;;;;;;9.75;5.85;;;22.90;47.00;;;;;;6158465;28;81006;-71
2021/12/24 08:27:40;;;;;;;10.10;6.03;;;22.90;46.50;;;;;;6151590;28;80409;-71
2021/12/24 08:30:41;;;;;;;8.32;4.95;;;22.90;47.20;;;;;;6155687;28;81491;-73
2021/12/24 08:33:41;;;;;;;8.93;5.07;;;22.90;47.10;;;;;;6155855;28;81046;-70
2021/12/24 08:36:42;;;;;;;10.77;5.18;;;22.90;47.00;;;;;;6155073;28;80492;-69
2021/12/24 08:39:42;;;;;;;8.45;4.35;;;22.90;47.20;;;;;;6157575;28;80572;-69
2021/12/24 08:42:43;;;;;;;8.43;4.38;;;22.90;47.60;;;;;;6162781;28;80369;-72
2021/12/24 08:45:43;;;;;;;8.30;4.25;;;22.90;46.90;;;;;;6169869;28;80826;-68
2021/12/24 08:48:43;;;;;;;10.02;4.35;;;22.90;46.90;;;;;;6159655;28;82398;-71
2021/12/24 08:51:44;;;;;;;7.95;4.18;;;22.90;47.00;;;;;;6157261;28;81678;-68
2021/12/24 08:54:45;;;;;;;8.68;4.15;;;22.90;46.90;;;;;;6157895;28;81557;-69
2021/12/24 08:57:45;;;;;;;7.50;4.63;;;22.90;46.70;;;;;;6157866;28;80526;-67
2021/12/24 09:00:46;;;;;;;6.45;3.88;;;22.90;46.60;;;;;;6160612;28;80448;-69
2021/12/24 09:03:46;;;;;;;6.03;4.35;;;22.80;46.40;;;;;;6162129;28;80673;-70
2021/12/24 09:06:47;;;;;;;6.85;4.35;;;22.80;46.00;;;;;;6159505;28;80546;-70
2021/12/24 09:09:47;;;;;;;8.27;3.80;;;22.80;46.00;;;;;;6157727;28;80312;-70
2021/12/24 09:12:48;;;;;;;6.28;3.67;;;22.80;46.40;;;;;;6157482;28;80780;-68
2021/12/24 09:15:48;;;;;;;8.13;4.45;;;22.80;46.30;;;;;;6156348;28;80641;-66
2021/12/24 09:18:56;;;;;;;6.72;4.00;;;22.80;46.40;;;;;;6157264;28;80556;-67
2021/12/24 09:21:57;;;;;;;6.90;4.10;;;22.90;46.50;;;;;;6158664;28;80507;-72
2021/12/24 09:24:58;;;;;;;9.18;3.92;;;22.80;46.80;;;;;;6155221;28;81869;-67
2021/12/24 09:27:58;;;;;;;7.93;3.90;;;22.90;47.50;;;;;;6150865;28;80530;-69
2021/12/24 09:30:59;;;;;;;8.38;3.78;;;22.80;48.00;;;;;;6155893;28;82475;-68
2021/12/24 09:33:59;;;;;;;8.50;3.65;;;22.90;48.50;;;;;;6147722;28;81387;-67
2021/12/24 09:37:00;;;;;;;5.97;3.90;;;22.90;49.10;;;;;;6158708;28;80278;-68
2021/12/24 09:40:00;;;;;;;14.35;4.43;;;22.80;50.00;;;;;;6159578;28;81734;-66
2021/12/24 09:43:01;;;;;;;11.90;3.95;;;22.90;50.80;;;;;;6161229;28;82147;-68
2021/12/24 09:46:01;;;;;;;5.75;3.53;;;22.90;51.50;;;;;;6161897;28;81099;-68
2021/12/24 09:49:02;;;;;;;5.18;3.70;;;22.90;52.90;;;;;;6161104;28;80585;-65
2021/12/24 09:52:02;;;;;;;6.43;3.88;;;22.90;54.20;;;;;;6159878;28;80185;-67
2021/12/24 09:55:03;;;;;;;7.20;3.60;;;22.90;54.60;;;;;;6163263;28;81471;-67
2021/12/24 09:58:03;;;;;;;6.18;3.85;;;22.90;55.80;;;;;;6157727;28;81936;-66
2021/12/24 10:01:04;;;;;;;6.25;3.40;;;22.90;56.00;;;;;;6157140;28;87142;-66
2021/12/24 10:04:04;;;;;;;4.93;3.20;;;22.90;55.80;;;;;;6162502;28;81124;-63
2021/12/24 10:07:05;;;;;;;7.63;3.65;;;22.90;55.90;;;;;;6150826;28;80831;-63
2021/12/24 10:10:07;;;;;;;6.63;3.58;;;22.90;55.80;;;;;;6152364;28;82121;-64
2021/12/24 10:13:08;;;;;;;5.78;3.95;;;22.90;55.40;;;;;;6149669;28;81659;-64
2021/12/24 10:16:08;;;;;;;5.03;3.20;;;22.90;54.90;;;;;;6153256;28;80593;-64
2021/12/24 10:19:09;;;;;;;7.03;3.83;;;22.90;54.10;;;;;;6158913;28;80431;-67
2021/12/24 10:22:11;;;;;;;6.22;3.47;;;22.80;53.30;;;;;;6161292;28;80369;-66
2021/12/24 10:25:13;;;;;;;5.18;3.45;;;22.90;53.30;;;;;;6159752;28;81832;-65
2021/12/24 10:28:14;;;;;;;5.65;3.30;;;22.90;53.00;;;;;;6160824;28;81477;-66
2021/12/24 10:31:14;;;;;;;7.75;3.65;;;22.80;53.00;;;;;;6160672;28;80283;-68
2021/12/24 10:34:15;;;;;;;5.28;3.47;;;22.80;53.60;;;;;;6158799;28;80422;-66
2021/12/24 10:37:18;;;;;;;5.47;3.45;;;22.80;53.30;;;;;;6156774;28;80717;-67
2021/12/24 10:40:19;;;;;;;5.93;3.10;;;22.90;53.70;;;;;;6159834;28;82318;-66
2021/12/24 10:43:19;;;;;;;9.40;3.28;;;22.90;53.50;;;;;;6160773;28;80832;-66
2021/12/24 10:46:20;;;;;;;5.00;3.20;;;22.80;53.70;;;;;;6161261;28;80311;-67
2021/12/24 10:49:34;;;;;;;5.22;2.90;;;22.90;54.20;;;;;;6158016;28;80781;-67
2021/12/24 10:53:31;;;;;;;5.32;3.47;;;22.90;54.80;;;;;;6156074;28;80274;-65
2021/12/24 10:55:55;;;;;;;8.02;3.53;;;22.90;54.90;;;;;;6128390;28;84771;-67
2021/12/24 10:58:56;;;;;;;6.60;3.30;;;22.90;55.00;;;;;;6158796;28;80351;-67
2021/12/24 11:01:56;;;;;;;5.50;3.42;;;22.90;55.10;;;;;;6155697;28;80506;-66
2021/12/24 11:04:57;;;;;;;7.53;3.97;;;22.90;54.70;;;;;;6158424;28;81480;-67
2021/12/24 11:07:57;;;;;;;6.60;3.60;;;22.80;54.90;;;;;;6158246;28;80355;-66
2021/12/24 11:10:58;;;;;;;6.47;3.40;;;22.90;55.50;;;;;;6159602;28;80527;-66
2021/12/24 11:13:59;;;;;;;6.35;2.70;;;22.80;55.40;;;;;;6160943;28;81361;-66
2021/12/24 11:16:59;;;;;;;8.63;3.72;;;22.90;55.30;;;;;;6161567;28;80618;-66
2021/12/24 11:20:02;;;;;;;5.05;2.80;;;22.90;55.30;;;;;;6161528;28;80614;-67
2021/12/24 11:23:02;;;;;;;5.80;3.28;;;22.90;55.20;;;;;;6160038;28;80416;-67
2021/12/24 11:26:03;;;;;;;5.50;2.70;;;22.90;54.70;;;;;;6155529;28;81911;-67
2021/12/24 11:29:04;;;;;;;4.80;2.90;;;22.90;54.20;;;;;;6159094;28;80398;-67
2021/12/24 11:32:04;;;;;;;3.80;2.63;;;22.90;54.00;;;;;;6159646;28;80624;-66
2021/12/24 11:35:05;;;;;;;6.93;3.20;;;22.90;53.60;;;;;;6158777;28;81195;-66
2021/12/24 11:38:05;;;;;;;5.03;2.63;;;22.90;53.50;;;;;;6152659;28;80473;-65
2021/12/24 11:41:06;;;;;;;6.38;3.13;;;22.90;53.40;;;;;;6154720;28;80287;-68
2021/12/24 11:44:07;;;;;;;4.65;2.80;;;23.00;52.80;;;;;;6159740;28;80187;-66
2021/12/24 11:47:08;;;;;;;5.90;2.75;;;22.90;52.40;;;;;;6160502;28;81461;-67
2021/12/24 11:50:08;;;;;;;6.93;3.10;;;23.00;52.50;;;;;;6159188;28;80343;-70
2021/12/24 11:53:09;;;;;;;10.18;3.75;;;23.00;52.60;;;;;;6156927;28;81448;-69
2021/12/24 11:56:10;;;;;;;9.23;4.10;;;22.90;51.80;;;;;;6158920;28;80557;-66
2021/12/24 11:59:10;;;;;;;3.92;2.60;;;22.90;51.70;;;;;;6157185;28;80799;-66
2021/12/24 12:02:11;;;;;;;6.95;2.85;;;23.00;51.90;;;;;;6158336;28;80327;-66
2021/12/24 12:05:11;;;;;;;7.13;2.97;;;22.90;52.30;;;;;;6157166;28;80572;-65
2021/12/24 12:08:12;;;;;;;6.57;2.95;;;22.90;52.20;;;;;;6159371;28;80622;-66
2021/12/24 12:11:12;;;;;;;6.15;2.70;;;22.90;52.80;;;;;;6155576;28;80365;-66
2021/12/24 12:14:18;;;;;;;8.10;2.72;;;23.00;52.50;;;;;;6159358;28;80680;-66
2021/12/24 12:17:18;;;;;;;6.05;2.60;;;22.90;51.90;;;;;;6158441;28;80442;-65
2021/12/24 12:20:19;;;;;;;8.77;3.08;;;23.00;51.90;;;;;;6146129;28;81622;-67
2021/12/24 12:23:25;;;;;;;6.13;3.25;;;23.00;52.00;;;;;;6157387;28;80704;-67
2021/12/24 12:26:26;;;;;;;5.55;3.10;;;22.90;51.90;;;;;;6157413;28;80156;-65
2021/12/24 12:29:26;;;;;;;4.85;3.20;;;23.00;52.60;;;;;;6151190;28;81415;-68
2021/12/24 12:32:27;;;;;;;5.20;2.63;;;23.00;52.40;;;;;;6155023;28;81217;-68
2021/12/24 12:35:27;;;;;;;5.03;3.65;;;23.00;52.70;;;;;;6151806;28;81637;-69
2021/12/24 12:38:28;;;;;;;5.88;2.90;;;23.00;53.10;;;;;;6152931;28;80622;-68
2021/12/24 12:41:36;;;;;;;4.28;2.70;;;23.00;52.80;;;;;;6158295;28;80644;-69
2021/12/24 12:44:40;;;;;;;5.38;3.10;;;23.00;52.40;;;;;;6145622;28;80640;-69
2021/12/24 12:47:40;;;;;;;3.80;2.65;;;23.00;52.60;;;;;;6160008;28;80603;-66
2021/12/24 12:50:41;;;;;;;4.32;2.70;;;23.00;52.10;;;;;;6164915;28;80637;-68
2021/12/24 12:53:42;;;;;;;3.90;2.53;;;23.00;52.10;;;;;;6158641;28;80182;-65
2021/12/24 12:56:42;;;;;;;5.00;3.17;;;23.00;51.70;;;;;;6154660;28;82569;-67
2021/12/24 12:59:43;;;;;;;4.13;2.88;;;23.00;51.30;;;;;;6157183;28;80782;-67
2021/12/24 13:02:43;;;;;;;4.22;2.90;;;23.00;51.30;;;;;;6157216;28;80729;-68
2021/12/24 13:05:44;;;;;;;4.53;2.53;;;23.00;50.90;;;;;;6155381;28;81743;-67
2021/12/24 13:08:44;;;;;;;4.53;2.60;;;23.00;50.80;;;;;;6154797;28;80992;-67
2021/12/24 13:11:45;;;;;;;4.03;2.83;;;23.00;50.80;;;;;;6159433;28;81182;-67
2021/12/24 13:14:45;;;;;;;5.53;2.92;;;23.00;50.70;;;;;;6158862;28;81059;-67
2021/12/24 13:17:48;;;;;;;5.28;2.60;;;22.90;50.40;;;;;;6164851;28;80392;-67
2021/12/24 13:22:27;;;;;;;4.18;2.90;;;22.90;51.10;;;;;;6163338;28;80408;-67
2021/12/24 13:24:09;;;;;;;2.88;2.53;;;23.00;51.10;;;;;;6161743;28;82527;-67
2021/12/24 13:27:10;;;;;;;5.25;2.75;;;23.00;51.10;;;;;;6160678;28;80152;-67
2021/12/24 13:30:11;;;;;;;5.38;3.20;;;23.00;51.00;;;;;;6163080;28;80225;-68
2021/12/24 13:33:12;;;;;;;4.35;2.70;;;23.00;51.10;;;;;;6163461;28;80353;-68
2021/12/24 13:36:13;;;;;;;4.30;2.88;;;23.00;50.70;;;;;;6163696;28;80589;-69
2021/12/24 13:39:13;;;;;;;4.28;2.75;;;23.00;51.00;;;;;;6162601;28;80840;-67
2021/12/24 13:42:14;;;;;;;5.15;2.63;;;23.00;51.30;;;;;;6161462;28;80914;-68
2021/12/24 13:45:14;;;;;;;6.10;2.50;;;23.00;50.80;;;;;;6161604;28;86255;-67
2021/12/24 13:48:19;;;;;;;4.25;2.67;;;23.00;50.80;;;;;;6160327;28;80449;-65
2021/12/24 13:54:33;;;;;;;4.18;2.72;;;23.00;51.40;;;;;;6150288;28;80411;-65
2021/12/24 13:57:34;;;;;;;4.47;3.10;;;23.00;50.90;;;;;;6158024;28;81039;-68
2021/12/24 14:00:35;;;;;;;7.53;2.67;;;23.00;50.90;;;;;;6160823;28;81746;-66
2021/12/24 14:03:35;;;;;;;3.70;2.97;;;23.00;51.10;;;;;;6156992;28;81621;-66
2021/12/24 14:06:36;;;;;;;2.72;2.17;;;23.00;51.20;;;;;;6158186;28;80838;-65
2021/12/24 14:09:36;;;;;;;3.63;2.58;;;23.00;51.30;;;;;;6153089;28;82062;-65
2021/12/24 14:12:37;;;;;;;3.65;2.40;;;23.00;51.50;;;;;;6154467;28;80966;-67
2021/12/24 14:16:00;;;;;;;3.15;2.35;;;23.00;51.50;;;;;;6157290;28;80399;-68
2021/12/24 14:19:03;;;;;;;3.92;2.65;;;23.00;51.60;;;;;;6163069;28;80841;-66
2021/12/24 14:22:03;;;;;;;4.20;2.63;;;23.00;50.60;;;;;;6157799;28;80274;-66
2021/12/24 14:25:08;;;;;;;4.60;2.97;;;23.00;51.30;;;;;;6162819;28;80833;-66
2021/12/24 14:28:08;;;;;;;6.25;3.08;;;23.00;50.90;;;;;;6161800;28;80347;-65
2021/12/24 14:31:08;;;;;;;3.60;2.78;;;23.00;50.40;;;;;;6161292;28;80957;-66
2021/12/24 14:34:09;;;;;;;4.68;2.60;;;23.00;50.80;;;;;;6160080;28;80879;-64
2021/12/24 14:37:10;;;;;;;5.38;2.65;;;23.00;50.70;;;;;;6167950;28;80719;-65
2021/12/24 14:40:10;;;;;;;5.60;3.50;;;23.00;51.20;;;;;;6192609;28;81547;-68
2021/12/24 14:43:11;;;;;;;6.97;4.40;;;23.00;50.90;;;;;;6160201;28;81573;-64
2021/12/24 14:46:11;;;;;;;7.13;4.60;;;22.90;50.70;;;;;;6162197;28;80809;-65
2021/12/24 14:49:12;;;;;;;7.60;4.78;;;23.00;51.20;;;;;;6159657;28;80828;-66
2021/12/24 14:52:12;;;;;;;6.30;4.25;;;23.00;50.70;;;;;;6154335;28;80888;-66
2021/12/24 14:55:13;;;;;;;8.88;4.72;;;23.00;50.80;;;;;;6158861;28;80559;-66
2021/12/24 14:58:13;;;;;;;8.93;4.07;;;23.00;50.90;;;;;;6158342;28;80937;-66
2021/12/24 15:01:14;;;;;;;5.80;3.80;;;23.00;50.70;;;;;;6154987;28;81085;-66
2021/12/24 15:04:15;;;;;;;6.78;3.45;;;23.00;51.20;;;;;;6155783;28;80338;-65
2021/12/24 15:07:16;;;;;;;4.78;3.38;;;23.00;51.00;;;;;;6157550;28;80502;-66
2021/12/24 15:10:18;;;;;;;6.88;3.30;;;23.00;51.30;;;;;;6160173;28;80443;-67
2021/12/24 15:13:20;;;;;;;5.53;3.20;;;23.00;50.90;;;;;;6154838;28;80814;-68
2021/12/24 15:16:20;;;;;;;4.82;2.88;;;23.00;51.00;;;;;;6154936;28;80998;-67
2021/12/24 15:19:21;;;;;;;5.25;3.05;;;23.00;51.00;;;;;;6151872;28;81542;-65
2021/12/24 15:22:22;;;;;;;4.20;2.65;;;23.00;50.90;;;;;;6156759;28;80746;-65
2021/12/24 15:25:22;;;;;;;4.88;3.25;;;23.00;50.50;;;;;;6165791;28;80572;-67
2021/12/24 15:28:23;;;;;;;4.93;3.13;;;23.00;50.30;;;;;;6157325;28;81249;-68
2021/12/24 15:31:23;;;;;;;4.10;2.97;;;23.00;50.80;;;;;;6156295;28;80111;-68
2021/12/24 15:34:24;;;;;;;6.43;3.40;;;23.00;50.70;;;;;;6157553;28;80986;-68
2021/12/24 15:37:24;;;;;;;4.40;3.08;;;22.90;50.40;;;;;;6155499;28;80532;-65
2021/12/24 15:40:25;;;;;;;4.30;3.08;;;22.90;50.30;;;;;;6159716;28;80849;-64
2021/12/24 15:43:25;;;;;;;4.75;2.58;;;22.90;50.20;;;;;;6159619;28;80361;-64
2021/12/24 15:46:26;;;;;;;5.38;3.17;;;22.90;50.50;;;;;;6160181;28;80223;-64
2021/12/24 15:49:26;;;;;;;6.63;3.55;;;23.00;50.30;;;;;;6160342;28;80326;-64
2021/12/24 15:52:27;;;;;;;6.03;3.35;;;22.90;50.40;;;;;;6160528;28;80343;-65
2021/12/24 15:55:28;;;;;;;5.13;3.47;;;22.90;50.50;;;;;;6155469;28;81570;-65
2021/12/24 15:58:28;;;;;;;6.47;3.30;;;23.00;50.40;;;;;;6148751;28;81553;-68
2021/12/24 16:01:29;;;;;;;7.75;4.05;;;22.90;50.90;;;;;;6158603;28;80691;-65
2021/12/24 16:04:29;;;;;;;9.15;3.65;;;23.00;51.00;;;;;;6158334;28;80962;-65
2021/12/24 16:07:30;;;;;;;6.13;3.42;;;22.90;51.00;;;;;;6159509;28;80728;-65
2021/12/24 16:10:30;;;;;;;5.22;3.00;;;23.00;51.00;;;;;;6159337;28;80882;-65
2021/12/24 16:13:32;;;;;;;6.25;2.85;;;23.00;51.40;;;;;;6155884;28;81743;-67
2021/12/24 16:16:33;;;;;;;4.95;2.90;;;23.00;51.20;;;;;;6150786;28;80268;-64
2021/12/24 16:19:33;;;;;;;8.10;3.38;;;23.00;51.00;;;;;;6155464;28;80662;-67
2021/12/24 16:22:34;;;;;;;5.18;3.08;;;23.00;51.10;;;;;;6153404;28;80357;-64
2021/12/24 16:25:34;;;;;;;5.22;2.70;;;23.00;51.40;;;;;;6149019;28;82596;-64
2021/12/24 16:28:35;;;;;;;5.63;2.90;;;23.00;51.80;;;;;;6158677;28;80826;-64
2021/12/24 16:31:35;;;;;;;8.00;3.13;;;23.00;51.70;;;;;;6151020;28;80515;-65
2021/12/24 16:34:36;;;;;;;6.82;3.28;;;23.00;51.40;;;;;;6158342;28;80985;-67
2021/12/24 16:37:36;;;;;;;5.03;2.95;;;23.00;51.70;;;;;;6158292;28;80428;-67
2021/12/24 16:40:37;;;;;;;6.90;3.28;;;23.00;51.80;;;;;;6159855;28;81853;-68
2021/12/24 16:43:37;;;;;;;4.47;3.28;;;23.00;51.80;;;;;;6157825;28;80655;-67
2021/12/24 16:46:38;;;;;;;8.23;2.85;;;23.00;52.00;;;;;;6155187;28;80645;-66
2021/12/24 16:49:38;;;;;;;15.95;8.20;;;23.00;51.60;;;;;;6158878;28;81439;-66
2021/12/24 16:52:39;;;;;;;114.22;53.42;;;23.00;51.10;;;;;;6157117;28;80292;-65
2021/12/24 16:55:39;;;;;;;193.75;95.65;;;23.00;51.80;;;;;;6155366;28;83135;-66
2021/12/24 16:58:39;;;;;;;236.20;114.10;;;23.10;52.10;;;;;;6156838;28;84053;-66
2021/12/24 17:01:40;;;;;;;283.02;131.23;;;23.00;52.20;;;;;;6152801;28;86352;-67
2021/12/24 17:04:40;;;;;;;262.80;124.47;;;23.00;52.30;;;;;;6152443;28;85366;-66
2021/12/24 17:07:41;;;;;;;215.73;104.88;;;23.00;52.20;;;;;;6151754;28;85572;-66
2021/12/24 17:10:41;;;;;;;294.95;141.43;;;23.00;52.30;;;;;;6147492;28;85522;-66
2021/12/24 17:13:42;;;;;;;330.00;160.77;;;23.00;52.90;;;;;;6151778;28;86156;-65
2021/12/24 17:16:42;;;;;;;315.38;148.90;;;22.90;52.80;;;;;;6153640;28;85443;-67
2021/12/24 17:19:43;;;;;;;423.40;210.18;;;23.00;52.60;;;;;;6151737;28;86203;-67
2021/12/24 17:22:43;;;;;;;477.75;243.07;;;23.00;52.30;;;;;;6152467;28;85323;-67